CZFM/ZFM METAR and TAF weather

Enter ICAO airport designator
Station Type Date Time Source
CZFM METAR 2022/08/16 19:00 UTC NOAA

CZFM 161900Z CCA VRB02KT 35SM FEW030 FEW200 20/10 A2983 RMK CU1CC1 SLP104 DENSITY ALT 900FT


Station Type Date Time Source
CZFM Decoded METAR 2022/08/16 19:00 UTC NOAA

Fort Mcpherson Airport, Canada (CZFM) 67-24N 134-51W
Aug 16, 2022 - 03:00 PM EDT / 2022.08.16 1900 UTC
Wind: Variable at 2 MPH (2 KT):0
Visibility: 35 mile(s):0
Sky conditions: mostly clear
Temperature: 68 F (20 C)
Dew Point: 50 F (10 C)
Relative Humidity: 52%
Pressure (altimeter): 29.83 in. Hg (1010 hPa)
ob: CZFM 161900Z CCA VRB02KT 35SM FEW030 FEW200 20/10 A2983 RMK CU1CC1 SLP104 DENSITY ALT 900FT
cycle: 19

Station Type Date Time Source
CZFM TAF 2022/08/16 19:00 UTC NOAA

TAF CZFM 161840Z 1619/1623 VRB03KT P6SM FEW080 SCT200
RMK NXT FCST BY 171500Z

Example: see airport list